sensor_id;sensor_type;location;lat;lon;timestamp;temperature;humidity
56861;DHT22;42744;51.094;3.490;2022-09-29T00:01:57;9.40;99.90
56861;DHT22;42744;51.094;3.490;2022-09-29T00:04:23;9.40;99.90
56861;DHT22;42744;51.094;3.490;2022-09-29T00:06:49;9.30;99.90
56861;DHT22;42744;51.094;3.490;2022-09-29T00:09:15;9.30;99.90
56861;DHT22;42744;51.094;3.490;2022-09-29T00:11:41;9.30;99.90
56861;DHT22;42744;51.094;3.490;2022-09-29T00:14:08;9.40;99.90
56861;DHT22;42744;51.094;3.490;2022-09-29T00:16:34;9.40;99.90
56861;DHT22;42744;51.094;3.490;2022-09-29T00:19:00;9.30;99.90
56861;DHT22;42744;51.094;3.490;2022-09-29T00:21:26;9.30;99.90
56861;DHT22;42744;51.094;3.490;2022-09-29T00:23:52;9.40;99.90
56861;DHT22;42744;51.094;3.490;2022-09-29T00:26:21;9.30;99.90
56861;DHT22;42744;51.094;3.490;2022-09-29T00:28:54;9.40;99.90
56861;DHT22;42744;51.094;3.490;2022-09-29T00:31:26;9.40;99.90
56861;DHT22;42744;51.094;3.490;2022-09-29T00:33:53;9.40;99.90
56861;DHT22;42744;51.094;3.490;2022-09-29T00:36:20;9.30;99.90
56861;DHT22;42744;51.094;3.490;2022-09-29T00:38:48;9.30;99.90
56861;DHT22;42744;51.094;3.490;2022-09-29T00:41:16;9.40;99.90
56861;DHT22;42744;51.094;3.490;2022-09-29T00:46:46;9.40;99.90
56861;DHT22;42744;51.094;3.490;2022-09-29T00:51:50;9.40;99.90
56861;DHT22;42744;51.094;3.490;2022-09-29T00:54:18;9.40;99.90
56861;DHT22;42744;51.094;3.490;2022-09-29T00:56:47;9.30;99.90
56861;DHT22;42744;51.094;3.490;2022-09-29T00:59:18;9.40;99.90
56861;DHT22;42744;51.094;3.490;2022-09-29T01:01:47;9.30;99.90
56861;DHT22;42744;51.094;3.490;2022-09-29T01:04:16;9.30;99.90
56861;DHT22;42744;51.094;3.490;2022-09-29T01:06:56;9.30;99.90
56861;DHT22;42744;51.094;3.490;2022-09-29T01:09:27;9.30;99.90
56861;DHT22;42744;51.094;3.490;2022-09-29T01:11:55;9.30;99.90
56861;DHT22;42744;51.094;3.490;2022-09-29T01:14:24;9.30;99.90
56861;DHT22;42744;51.094;3.490;2022-09-29T01:16:50;9.20;99.90
56861;DHT22;42744;51.094;3.490;2022-09-29T01:33:18;9.30;99.90
56861;DHT22;42744;51.094;3.490;2022-09-29T01:41:44;9.30;99.90
56861;DHT22;42744;51.094;3.490;2022-09-29T01:44:31;9.30;99.90
56861;DHT22;42744;51.094;3.490;2022-09-29T01:47:05;9.30;99.90
56861;DHT22;42744;51.094;3.490;2022-09-29T01:49:36;9.30;99.90
56861;DHT22;42744;51.094;3.490;2022-09-29T01:52:12;9.30;99.90
56861;DHT22;42744;51.094;3.490;2022-09-29T01:54:59;9.30;99.90
56861;DHT22;42744;51.094;3.490;2022-09-29T01:57:30;9.30;99.90
56861;DHT22;42744;51.094;3.490;2022-09-29T02:05:54;9.30;99.90
56861;DHT22;42744;51.094;3.490;2022-09-29T02:08:26;9.30;99.90
56861;DHT22;42744;51.094;3.490;2022-09-29T02:11:04;9.30;99.90
56861;DHT22;42744;51.094;3.490;2022-09-29T02:13:35;9.30;99.90
56861;DHT22;42744;51.094;3.490;2022-09-29T02:16:03;9.30;99.90
56861;DHT22;42744;51.094;3.490;2022-09-29T02:18:36;9.30;99.90
56861;DHT22;42744;51.094;3.490;2022-09-29T02:21:05;9.30;99.90
56861;DHT22;42744;51.094;3.490;2022-09-29T02:23:30;9.30;99.90
56861;DHT22;42744;51.094;3.490;2022-09-29T02:25:57;9.40;99.90
56861;DHT22;42744;51.094;3.490;2022-09-29T02:28:25;9.30;99.90
56861;DHT22;42744;51.094;3.490;2022-09-29T02:30:51;9.30;99.90
56861;DHT22;42744;51.094;3.490;2022-09-29T02:33:22;9.40;99.90
56861;DHT22;42744;51.094;3.490;2022-09-29T02:36:18;9.40;99.90
56861;DHT22;42744;51.094;3.490;2022-09-29T02:38:55;9.40;99.90
56861;DHT22;42744;51.094;3.490;2022-09-29T02:49:53;9.30;99.90
56861;DHT22;42744;51.094;3.490;2022-09-29T02:55:42;9.40;99.90
56861;DHT22;42744;51.094;3.490;2022-09-29T02:58:37;9.30;99.90
56861;DHT22;42744;51.094;3.490;2022-09-29T03:01:04;9.20;99.90
56861;DHT22;42744;51.094;3.490;2022-09-29T03:03:32;9.20;99.90
56861;DHT22;42744;51.094;3.490;2022-09-29T03:05:58;9.20;99.90
56861;DHT22;42744;51.094;3.490;2022-09-29T03:08:24;9.20;99.90
56861;DHT22;42744;51.094;3.490;2022-09-29T03:10:50;9.10;99.90
56861;DHT22;42744;51.094;3.490;2022-09-29T03:13:16;9.10;99.90
56861;DHT22;42744;51.094;3.490;2022-09-29T03:15:42;9.10;99.90
56861;DHT22;42744;51.094;3.490;2022-09-29T03:18:08;9.10;99.90
56861;DHT22;42744;51.094;3.490;2022-09-29T03:20:34;9.10;99.90
56861;DHT22;42744;51.094;3.490;2022-09-29T03:23:00;9.10;99.90
56861;DHT22;42744;51.094;3.490;2022-09-29T03:25:26;9.10;99.90
56861;DHT22;42744;51.094;3.490;2022-09-29T03:27:53;9.10;99.90
56861;DHT22;42744;51.094;3.490;2022-09-29T03:30:18;9.10;99.90
56861;DHT22;42744;51.094;3.490;2022-09-29T03:32:48;9.10;99.90
56861;DHT22;42744;51.094;3.490;2022-09-29T03:35:14;9.10;99.90
56861;DHT22;42744;51.094;3.490;2022-09-29T03:37:46;9.20;99.90
56861;DHT22;42744;51.094;3.490;2022-09-29T03:40:12;9.20;99.90
56861;DHT22;42744;51.094;3.490;2022-09-29T03:42:38;9.20;99.90
56861;DHT22;42744;51.094;3.490;2022-09-29T03:45:04;9.20;99.90
56861;DHT22;42744;51.094;3.490;2022-09-29T03:47:30;9.20;99.90
56861;DHT22;42744;51.094;3.490;2022-09-29T03:49:56;9.20;99.90
56861;DHT22;42744;51.094;3.490;2022-09-29T03:52:22;9.20;99.90
56861;DHT22;42744;51.094;3.490;2022-09-29T03:54:48;9.20;99.90
56861;DHT22;42744;51.094;3.490;2022-09-29T03:57:14;9.30;99.90
56861;DHT22;42744;51.094;3.490;2022-09-29T03:59:40;9.30;99.90
56861;DHT22;42744;51.094;3.490;2022-09-29T04:02:06;9.30;99.90
56861;DHT22;42744;51.094;3.490;2022-09-29T04:04:33;9.30;99.90
56861;DHT22;42744;51.094;3.490;2022-09-29T04:06:58;9.30;99.90
56861;DHT22;42744;51.094;3.490;2022-09-29T04:09:24;9.30;99.90
56861;DHT22;42744;51.094;3.490;2022-09-29T04:11:51;9.20;99.90
56861;DHT22;42744;51.094;3.490;2022-09-29T04:14:16;9.20;99.90
56861;DHT22;42744;51.094;3.490;2022-09-29T04:16:42;9.20;99.90
56861;DHT22;42744;51.094;3.490;2022-09-29T04:19:08;9.20;99.90
56861;DHT22;42744;51.094;3.490;2022-09-29T04:21:34;9.20;99.90
56861;DHT22;42744;51.094;3.490;2022-09-29T04:24:00;9.20;99.90
56861;DHT22;42744;51.094;3.490;2022-09-29T04:26:26;9.20;99.90
56861;DHT22;42744;51.094;3.490;2022-09-29T04:28:52;9.20;99.90
56861;DHT22;42744;51.094;3.490;2022-09-29T04:31:18;9.10;99.90
56861;DHT22;42744;51.094;3.490;2022-09-29T04:33:44;9.10;99.90
56861;DHT22;42744;51.094;3.490;2022-09-29T04:36:10;9.10;99.90
56861;DHT22;42744;51.094;3.490;2022-09-29T04:38:36;9.10;99.90
56861;DHT22;42744;51.094;3.490;2022-09-29T04:41:02;9.10;99.90
56861;DHT22;42744;51.094;3.490;2022-09-29T04:43:28;9.10;99.90
56861;DHT22;42744;51.094;3.490;2022-09-29T04:46:01;9.20;99.90
56861;DHT22;42744;51.094;3.490;2022-09-29T04:48:28;9.10;99.90
56861;DHT22;42744;51.094;3.490;2022-09-29T04:50:53;9.10;99.90
56861;DHT22;42744;51.094;3.490;2022-09-29T04:53:19;9.10;99.90
56861;DHT22;42744;51.094;3.490;2022-09-29T04:55:45;9.10;99.90
56861;DHT22;42744;51.094;3.490;2022-09-29T04:58:11;9.00;99.90
56861;DHT22;42744;51.094;3.490;2022-09-29T05:00:37;9.00;99.90
56861;DHT22;42744;51.094;3.490;2022-09-29T05:03:03;9.00;99.90
56861;DHT22;42744;51.094;3.490;2022-09-29T05:05:29;9.00;99.90
56861;DHT22;42744;51.094;3.490;2022-09-29T05:07:55;9.00;99.90
56861;DHT22;42744;51.094;3.490;2022-09-29T05:10:21;9.00;99.90
56861;DHT22;42744;51.094;3.490;2022-09-29T05:12:48;9.00;99.90
56861;DHT22;42744;51.094;3.490;2022-09-29T05:15:16;9.00;99.90
56861;DHT22;42744;51.094;3.490;2022-09-29T05:17:42;9.00;99.90
56861;DHT22;42744;51.094;3.490;2022-09-29T05:20:08;9.00;99.90
56861;DHT22;42744;51.094;3.490;2022-09-29T05:22:34;9.00;99.90
56861;DHT22;42744;51.094;3.490;2022-09-29T05:25:01;9.00;99.90
56861;DHT22;42744;51.094;3.490;2022-09-29T05:27:27;9.10;99.90
56861;DHT22;42744;51.094;3.490;2022-09-29T05:29:52;9.10;99.90
56861;DHT22;42744;51.094;3.490;2022-09-29T05:32:19;9.10;99.90
56861;DHT22;42744;51.094;3.490;2022-09-29T05:34:45;9.10;99.90
56861;DHT22;42744;51.094;3.490;2022-09-29T05:37:11;9.10;99.90
56861;DHT22;42744;51.094;3.490;2022-09-29T05:39:37;9.00;99.90
56861;DHT22;42744;51.094;3.490;2022-09-29T05:42:05;9.00;99.90
56861;DHT22;42744;51.094;3.490;2022-09-29T05:44:34;9.00;99.90
56861;DHT22;42744;51.094;3.490;2022-09-29T05:47:00;9.00;99.90
56861;DHT22;42744;51.094;3.490;2022-09-29T05:49:26;9.00;99.90
56861;DHT22;42744;51.094;3.490;2022-09-29T05:51:52;9.00;99.90
56861;DHT22;42744;51.094;3.490;2022-09-29T05:54:18;9.00;99.90
56861;DHT22;42744;51.094;3.490;2022-09-29T05:56:44;8.90;99.90
56861;DHT22;42744;51.094;3.490;2022-09-29T05:59:10;9.00;99.90
56861;DHT22;42744;51.094;3.490;2022-09-29T06:01:36;9.00;99.90
56861;DHT22;42744;51.094;3.490;2022-09-29T06:04:03;9.00;99.90
56861;DHT22;42744;51.094;3.490;2022-09-29T06:06:28;9.00;99.90
56861;DHT22;42744;51.094;3.490;2022-09-29T06:08:56;9.10;99.90
56861;DHT22;42744;51.094;3.490;2022-09-29T06:11:25;9.10;99.90
56861;DHT22;42744;51.094;3.490;2022-09-29T06:13:57;9.10;99.90
56861;DHT22;42744;51.094;3.490;2022-09-29T06:16:25;9.20;99.90
56861;DHT22;42744;51.094;3.490;2022-09-29T06:18:52;9.10;99.90
56861;DHT22;42744;51.094;3.490;2022-09-29T06:21:20;9.20;99.90
56861;DHT22;42744;51.094;3.490;2022-09-29T06:23:46;9.20;99.90
56861;DHT22;42744;51.094;3.490;2022-09-29T06:26:14;9.20;99.90
56861;DHT22;42744;51.094;3.490;2022-09-29T06:28:40;9.20;99.90
56861;DHT22;42744;51.094;3.490;2022-09-29T06:31:12;9.20;99.90
56861;DHT22;42744;51.094;3.490;2022-09-29T06:33:39;9.20;99.90
56861;DHT22;42744;51.094;3.490;2022-09-29T06:36:17;9.20;99.90
56861;DHT22;42744;51.094;3.490;2022-09-29T06:39:04;9.30;99.90
56861;DHT22;42744;51.094;3.490;2022-09-29T06:41:30;9.30;99.90
56861;DHT22;42744;51.094;3.490;2022-09-29T06:43:56;9.40;99.90
56861;DHT22;42744;51.094;3.490;2022-09-29T06:46:23;9.50;99.90
56861;DHT22;42744;51.094;3.490;2022-09-29T06:48:54;9.50;99.90
56861;DHT22;42744;51.094;3.490;2022-09-29T06:51:21;9.60;99.90
56861;DHT22;42744;51.094;3.490;2022-09-29T06:53:49;9.60;99.90
56861;DHT22;42744;51.094;3.490;2022-09-29T06:56:15;9.60;99.90
56861;DHT22;42744;51.094;3.490;2022-09-29T06:58:42;9.70;99.90
56861;DHT22;42744;51.094;3.490;2022-09-29T07:01:09;9.70;99.90
56861;DHT22;42744;51.094;3.490;2022-09-29T07:03:35;9.80;99.90
56861;DHT22;42744;51.094;3.490;2022-09-29T07:06:02;9.90;99.90
56861;DHT22;42744;51.094;3.490;2022-09-29T07:08:29;9.90;99.90
56861;DHT22;42744;51.094;3.490;2022-09-29T07:10:56;10.00;99.90
56861;DHT22;42744;51.094;3.490;2022-09-29T07:13:24;10.00;99.90
56861;DHT22;42744;51.094;3.490;2022-09-29T07:15:50;10.00;99.90
56861;DHT22;42744;51.094;3.490;2022-09-29T07:18:16;10.10;99.90
56861;DHT22;42744;51.094;3.490;2022-09-29T07:20:42;10.20;99.90
56861;DHT22;42744;51.094;3.490;2022-09-29T07:23:09;10.20;99.90
56861;DHT22;42744;51.094;3.490;2022-09-29T07:25:35;10.30;99.90
56861;DHT22;42744;51.094;3.490;2022-09-29T07:28:01;10.30;99.90
56861;DHT22;42744;51.094;3.490;2022-09-29T07:30:27;10.40;99.90
56861;DHT22;42744;51.094;3.490;2022-09-29T07:32:53;10.50;99.90
56861;DHT22;42744;51.094;3.490;2022-09-29T07:35:23;10.60;99.90
56861;DHT22;42744;51.094;3.490;2022-09-29T07:37:53;10.60;99.90
56861;DHT22;42744;51.094;3.490;2022-09-29T07:40:20;10.60;99.90
56861;DHT22;42744;51.094;3.490;2022-09-29T07:42:47;10.70;99.90
56861;DHT22;42744;51.094;3.490;2022-09-29T07:45:15;10.70;99.90
56861;DHT22;42744;51.094;3.490;2022-09-29T07:47:41;10.70;99.90
56861;DHT22;42744;51.094;3.490;2022-09-29T07:50:07;10.70;99.90
56861;DHT22;42744;51.094;3.490;2022-09-29T07:52:33;10.70;99.90
56861;DHT22;42744;51.094;3.490;2022-09-29T07:55:00;10.70;99.90
56861;DHT22;42744;51.094;3.490;2022-09-29T07:57:26;10.60;99.90
56861;DHT22;42744;51.094;3.490;2022-09-29T07:59:52;10.60;99.90
56861;DHT22;42744;51.094;3.490;2022-09-29T08:02:19;10.60;99.90
56861;DHT22;42744;51.094;3.490;2022-09-29T08:04:46;10.60;99.90
56861;DHT22;42744;51.094;3.490;2022-09-29T08:07:12;10.60;99.90
56861;DHT22;42744;51.094;3.490;2022-09-29T08:09:37;10.70;99.90
56861;DHT22;42744;51.094;3.490;2022-09-29T08:12:04;10.70;99.90
56861;DHT22;42744;51.094;3.490;2022-09-29T08:14:29;10.70;99.90
56861;DHT22;42744;51.094;3.490;2022-09-29T08:16:55;10.80;99.90
56861;DHT22;42744;51.094;3.490;2022-09-29T08:19:21;10.90;99.90
56861;DHT22;42744;51.094;3.490;2022-09-29T08:21:47;10.90;99.90
56861;DHT22;42744;51.094;3.490;2022-09-29T08:24:14;11.00;99.90
56861;DHT22;42744;51.094;3.490;2022-09-29T08:26:42;11.00;99.90
56861;DHT22;42744;51.094;3.490;2022-09-29T08:29:09;11.10;99.90
56861;DHT22;42744;51.094;3.490;2022-09-29T08:31:36;11.20;99.90
56861;DHT22;42744;51.094;3.490;2022-09-29T08:34:06;11.20;99.90
56861;DHT22;42744;51.094;3.490;2022-09-29T08:36:32;11.20;99.90
56861;DHT22;42744;51.094;3.490;2022-09-29T08:38:58;11.30;99.90
56861;DHT22;42744;51.094;3.490;2022-09-29T08:47:17;11.40;99.90
56861;DHT22;42744;51.094;3.490;2022-09-29T08:50:00;11.40;99.90
56861;DHT22;42744;51.094;3.490;2022-09-29T08:52:30;11.40;99.90
56861;DHT22;42744;51.094;3.490;2022-09-29T08:55:26;11.50;99.90
56861;DHT22;42744;51.094;3.490;2022-09-29T08:57:58;11.60;99.90
56861;DHT22;42744;51.094;3.490;2022-09-29T09:00:34;11.60;99.90
56861;DHT22;42744;51.094;3.490;2022-09-29T09:03:24;11.70;99.90
56861;DHT22;42744;51.094;3.490;2022-09-29T09:06:40;11.70;99.90
56861;DHT22;42744;51.094;3.490;2022-09-29T09:27:48;12.40;99.90
56861;DHT22;42744;51.094;3.490;2022-09-29T09:30:17;12.50;99.90
56861;DHT22;42744;51.094;3.490;2022-09-29T09:32:56;12.60;99.90
56861;DHT22;42744;51.094;3.490;2022-09-29T09:35:46;12.70;99.90
56861;DHT22;42744;51.094;3.490;2022-09-29T09:38:19;12.90;99.90
56861;DHT22;42744;51.094;3.490;2022-09-29T09:40:49;12.90;99.90
56861;DHT22;42744;51.094;3.490;2022-09-29T09:48:44;13.10;99.90
56861;DHT22;42744;51.094;3.490;2022-09-29T09:51:36;13.20;99.90
56861;DHT22;42744;51.094;3.490;2022-09-29T09:54:08;13.40;99.90
56861;DHT22;42744;51.094;3.490;2022-09-29T10:02:46;14.20;99.90
56861;DHT22;42744;51.094;3.490;2022-09-29T10:05:21;14.60;99.90
56861;DHT22;42744;51.094;3.490;2022-09-29T10:07:49;14.70;99.90
56861;DHT22;42744;51.094;3.490;2022-09-29T10:12:42;14.70;99.90
56861;DHT22;42744;51.094;3.490;2022-09-29T10:15:26;14.60;99.90
56861;DHT22;42744;51.094;3.490;2022-09-29T10:20:43;14.40;99.90
56861;DHT22;42744;51.094;3.490;2022-09-29T10:23:32;14.40;99.90
56861;DHT22;42744;51.094;3.490;2022-09-29T10:28:35;14.50;99.90
56861;DHT22;42744;51.094;3.490;2022-09-29T10:31:18;14.60;99.90
56861;DHT22;42744;51.094;3.490;2022-09-29T10:33:49;15.00;99.90
56861;DHT22;42744;51.094;3.490;2022-09-29T10:36:17;15.40;99.90
56861;DHT22;42744;51.094;3.490;2022-09-29T10:38:49;15.70;99.90
56861;DHT22;42744;51.094;3.490;2022-09-29T10:41:15;15.90;99.90
56861;DHT22;42744;51.094;3.490;2022-09-29T10:43:43;16.10;99.90
56861;DHT22;42744;51.094;3.490;2022-09-29T10:49:17;16.40;99.90
56861;DHT22;42744;51.094;3.490;2022-09-29T10:52:04;16.00;99.90
56861;DHT22;42744;51.094;3.490;2022-09-29T10:54:33;15.20;99.90
56861;DHT22;42744;51.094;3.490;2022-09-29T10:57:13;14.60;99.90
56861;DHT22;42744;51.094;3.490;2022-09-29T10:59:48;14.10;99.90
56861;DHT22;42744;51.094;3.490;2022-09-29T11:04:49;13.60;99.90
56861;DHT22;42744;51.094;3.490;2022-09-29T11:07:16;13.30;99.90
56861;DHT22;42744;51.094;3.490;2022-09-29T11:09:45;13.20;99.90
56861;DHT22;42744;51.094;3.490;2022-09-29T11:12:44;13.00;99.90
56861;DHT22;42744;51.094;3.490;2022-09-29T11:15:39;13.10;99.90
56861;DHT22;42744;51.094;3.490;2022-09-29T11:20:57;13.00;99.90
56861;DHT22;42744;51.094;3.490;2022-09-29T11:23:38;13.00;99.90
56861;DHT22;42744;51.094;3.490;2022-09-29T11:28:43;13.00;99.90
56861;DHT22;42744;51.094;3.490;2022-09-29T11:34:21;13.10;99.90
56861;DHT22;42744;51.094;3.490;2022-09-29T11:40:18;13.20;99.90
56861;DHT22;42744;51.094;3.490;2022-09-29T11:48:44;13.40;99.90
56861;DHT22;42744;51.094;3.490;2022-09-29T11:51:15;13.40;99.90
56861;DHT22;42744;51.094;3.490;2022-09-29T11:59:12;13.50;99.90
56861;DHT22;42744;51.094;3.490;2022-09-29T12:02:07;13.80;99.90
56861;DHT22;42744;51.094;3.490;2022-09-29T12:20:59;14.70;99.90
56861;DHT22;42744;51.094;3.490;2022-09-29T12:23:27;14.80;99.90
56861;DHT22;42744;51.094;3.490;2022-09-29T12:26:02;14.80;99.90
56861;DHT22;42744;51.094;3.490;2022-09-29T12:28:39;14.90;99.90
56861;DHT22;42744;51.094;3.490;2022-09-29T12:31:23;15.30;99.90
56861;DHT22;42744;51.094;3.490;2022-09-29T12:34:18;15.60;99.90
56861;DHT22;42744;51.094;3.490;2022-09-29T12:37:10;16.10;99.90
56861;DHT22;42744;51.094;3.490;2022-09-29T12:48:16;17.20;99.90
56861;DHT22;42744;51.094;3.490;2022-09-29T12:51:02;16.80;99.90
56861;DHT22;42744;51.094;3.490;2022-09-29T12:53:45;16.50;99.90
56861;DHT22;42744;51.094;3.490;2022-09-29T12:56:26;16.20;99.90
56861;DHT22;42744;51.094;3.490;2022-09-29T12:59:01;16.20;99.90
56861;DHT22;42744;51.094;3.490;2022-09-29T13:01:33;16.60;99.90
56861;DHT22;42744;51.094;3.490;2022-09-29T13:10:00;16.70;99.90
56861;DHT22;42744;51.094;3.490;2022-09-29T13:27:25;16.60;99.90
56861;DHT22;42744;51.094;3.490;2022-09-29T13:30:02;16.70;99.90
56861;DHT22;42744;51.094;3.490;2022-09-29T13:32:30;16.60;99.90
56861;DHT22;42744;51.094;3.490;2022-09-29T13:34:59;16.50;99.90
56861;DHT22;42744;51.094;3.490;2022-09-29T13:37:41;16.60;99.90
56861;DHT22;42744;51.094;3.490;2022-09-29T13:40:17;16.60;99.90
56861;DHT22;42744;51.094;3.490;2022-09-29T13:42:45;16.40;99.90
56861;DHT22;42744;51.094;3.490;2022-09-29T13:47:58;16.40;99.90
56861;DHT22;42744;51.094;3.490;2022-09-29T13:50:45;16.40;99.90
56861;DHT22;42744;51.094;3.490;2022-09-29T13:58:26;17.00;99.90
56861;DHT22;42744;51.094;3.490;2022-09-29T14:00:58;17.20;99.90
56861;DHT22;42744;51.094;3.490;2022-09-29T14:08:51;17.20;99.90
56861;DHT22;42744;51.094;3.490;2022-09-29T14:16:36;17.00;99.90
56861;DHT22;42744;51.094;3.490;2022-09-29T14:21:55;16.50;99.90
56861;DHT22;42744;51.094;3.490;2022-09-29T14:27:28;15.70;99.90
56861;DHT22;42744;51.094;3.490;2022-09-29T14:30:12;15.50;99.90
56861;DHT22;42744;51.094;3.490;2022-09-29T14:32:59;15.30;99.90
56861;DHT22;42744;51.094;3.490;2022-09-29T14:35:40;15.40;99.90
56861;DHT22;42744;51.094;3.490;2022-09-29T14:41:03;15.80;99.90
56861;DHT22;42744;51.094;3.490;2022-09-29T14:43:47;15.90;99.90
56861;DHT22;42744;51.094;3.490;2022-09-29T14:58:25;15.50;99.90
56861;DHT22;42744;51.094;3.490;2022-09-29T15:01:15;15.40;99.90
56861;DHT22;42744;51.094;3.490;2022-09-29T15:03:53;15.30;99.90
56861;DHT22;42744;51.094;3.490;2022-09-29T15:06:26;15.10;99.90
56861;DHT22;42744;51.094;3.490;2022-09-29T15:11:35;14.90;99.90
56861;DHT22;42744;51.094;3.490;2022-09-29T15:14:16;14.70;99.90
56861;DHT22;42744;51.094;3.490;2022-09-29T15:25:33;14.20;99.90
56861;DHT22;42744;51.094;3.490;2022-09-29T15:28:18;14.20;99.90
56861;DHT22;42744;51.094;3.490;2022-09-29T15:30:49;14.10;99.90
56861;DHT22;42744;51.094;3.490;2022-09-29T15:33:21;14.10;99.90
56861;DHT22;42744;51.094;3.490;2022-09-29T15:35:57;14.10;99.90
56861;DHT22;42744;51.094;3.490;2022-09-29T15:40:59;14.10;99.90
56861;DHT22;42744;51.094;3.490;2022-09-29T15:43:27;14.10;99.90
56861;DHT22;42744;51.094;3.490;2022-09-29T15:45:56;14.10;99.90
56861;DHT22;42744;51.094;3.490;2022-09-29T15:48:28;14.10;99.90
56861;DHT22;42744;51.094;3.490;2022-09-29T15:50:55;14.10;99.90
56861;DHT22;42744;51.094;3.490;2022-09-29T15:53:24;14.10;99.90
56861;DHT22;42744;51.094;3.490;2022-09-29T15:55:52;14.10;99.90
56861;DHT22;42744;51.094;3.490;2022-09-29T16:01:01;14.00;99.90
56861;DHT22;42744;51.094;3.490;2022-09-29T16:06:12;14.00;99.90
56861;DHT22;42744;51.094;3.490;2022-09-29T16:08:45;14.00;99.90
56861;DHT22;42744;51.094;3.490;2022-09-29T16:11:19;14.00;99.90
56861;DHT22;42744;51.094;3.490;2022-09-29T16:13:50;14.00;99.90
56861;DHT22;42744;51.094;3.490;2022-09-29T16:16:18;13.90;99.90
56861;DHT22;42744;51.094;3.490;2022-09-29T16:18:50;13.90;99.90
56861;DHT22;42744;51.094;3.490;2022-09-29T16:21:23;13.90;99.90
56861;DHT22;42744;51.094;3.490;2022-09-29T16:24:17;13.80;99.90
56861;DHT22;42744;51.094;3.490;2022-09-29T16:26:50;13.80;99.90
56861;DHT22;42744;51.094;3.490;2022-09-29T16:31:45;13.60;99.90
56861;DHT22;42744;51.094;3.490;2022-09-29T16:39:15;13.50;99.90
56861;DHT22;42744;51.094;3.490;2022-09-29T16:41:48;13.40;99.90
56861;DHT22;42744;51.094;3.490;2022-09-29T16:44:31;13.40;99.90
56861;DHT22;42744;51.094;3.490;2022-09-29T16:47:16;13.30;99.90
56861;DHT22;42744;51.094;3.490;2022-09-29T16:49:52;13.20;99.90
56861;DHT22;42744;51.094;3.490;2022-09-29T16:52:20;13.20;99.90
56861;DHT22;42744;51.094;3.490;2022-09-29T16:58:01;13.00;99.90
56861;DHT22;42744;51.094;3.490;2022-09-29T17:00:28;13.00;99.90
56861;DHT22;42744;51.094;3.490;2022-09-29T17:02:55;12.90;99.90
56861;DHT22;42744;51.094;3.490;2022-09-29T17:05:25;12.90;99.90
56861;DHT22;42744;51.094;3.490;2022-09-29T17:08:00;12.80;99.90
56861;DHT22;42744;51.094;3.490;2022-09-29T17:10:26;12.70;99.90
56861;DHT22;42744;51.094;3.490;2022-09-29T17:12:52;12.60;99.90
56861;DHT22;42744;51.094;3.490;2022-09-29T17:15:20;12.50;99.90
56861;DHT22;42744;51.094;3.490;2022-09-29T17:17:48;12.40;99.90
56861;DHT22;42744;51.094;3.490;2022-09-29T17:20:18;12.40;99.90
56861;DHT22;42744;51.094;3.490;2022-09-29T17:22:45;12.30;99.90
56861;DHT22;42744;51.094;3.490;2022-09-29T17:25:12;12.20;99.90
56861;DHT22;42744;51.094;3.490;2022-09-29T17:27:39;12.20;99.90
56861;DHT22;42744;51.094;3.490;2022-09-29T17:30:24;12.20;99.90
56861;DHT22;42744;51.094;3.490;2022-09-29T17:32:54;12.10;99.90
56861;DHT22;42744;51.094;3.490;2022-09-29T17:35:32;12.10;99.90
56861;DHT22;42744;51.094;3.490;2022-09-29T17:37:59;12.00;99.90
56861;DHT22;42744;51.094;3.490;2022-09-29T17:40:36;12.00;99.90
56861;DHT22;42744;51.094;3.490;2022-09-29T17:43:07;11.90;99.90
56861;DHT22;42744;51.094;3.490;2022-09-29T17:45:33;11.80;99.90
56861;DHT22;42744;51.094;3.490;2022-09-29T17:48:03;11.80;99.90
56861;DHT22;42744;51.094;3.490;2022-09-29T17:50:56;11.70;99.90
56861;DHT22;42744;51.094;3.490;2022-09-29T17:53:24;11.70;99.90
56861;DHT22;42744;51.094;3.490;2022-09-29T17:55:52;11.60;99.90
56861;DHT22;42744;51.094;3.490;2022-09-29T17:58:20;11.60;99.90
56861;DHT22;42744;51.094;3.490;2022-09-29T18:00:49;11.50;99.90
56861;DHT22;42744;51.094;3.490;2022-09-29T18:03:18;11.50;99.90
56861;DHT22;42744;51.094;3.490;2022-09-29T18:05:46;11.40;99.90
56861;DHT22;42744;51.094;3.490;2022-09-29T18:08:14;11.30;99.90
56861;DHT22;42744;51.094;3.490;2022-09-29T18:10:51;11.30;99.90
56861;DHT22;42744;51.094;3.490;2022-09-29T18:13:18;11.30;99.90
56861;DHT22;42744;51.094;3.490;2022-09-29T18:15:45;11.30;99.90
56861;DHT22;42744;51.094;3.490;2022-09-29T18:18:16;11.30;99.90
56861;DHT22;42744;51.094;3.490;2022-09-29T18:20:43;11.20;99.90
56861;DHT22;42744;51.094;3.490;2022-09-29T18:23:19;11.10;99.90
56861;DHT22;42744;51.094;3.490;2022-09-29T18:25:48;11.10;99.90
56861;DHT22;42744;51.094;3.490;2022-09-29T18:28:16;11.00;99.90
56861;DHT22;42744;51.094;3.490;2022-09-29T18:30:45;10.90;99.90
56861;DHT22;42744;51.094;3.490;2022-09-29T18:33:14;10.80;99.90
56861;DHT22;42744;51.094;3.490;2022-09-29T18:35:44;10.80;99.90
56861;DHT22;42744;51.094;3.490;2022-09-29T18:38:10;10.80;99.90
56861;DHT22;42744;51.094;3.490;2022-09-29T18:40:37;10.80;99.90
56861;DHT22;42744;51.094;3.490;2022-09-29T18:43:04;10.70;99.90
56861;DHT22;42744;51.094;3.490;2022-09-29T18:45:34;10.70;99.90
56861;DHT22;42744;51.094;3.490;2022-09-29T18:48:03;10.70;99.90
56861;DHT22;42744;51.094;3.490;2022-09-29T18:50:35;10.60;99.90
56861;DHT22;42744;51.094;3.490;2022-09-29T18:53:08;10.60;99.90
56861;DHT22;42744;51.094;3.490;2022-09-29T18:55:35;10.50;99.90
56861;DHT22;42744;51.094;3.490;2022-09-29T18:58:01;10.50;99.90
56861;DHT22;42744;51.094;3.490;2022-09-29T19:00:33;10.50;99.90
56861;DHT22;42744;51.094;3.490;2022-09-29T19:03:01;10.50;99.90
56861;DHT22;42744;51.094;3.490;2022-09-29T19:05:30;10.40;99.90
56861;DHT22;42744;51.094;3.490;2022-09-29T19:08:03;10.30;99.90
56861;DHT22;42744;51.094;3.490;2022-09-29T19:10:31;10.30;99.90
56861;DHT22;42744;51.094;3.490;2022-09-29T19:13:03;10.30;99.90
56861;DHT22;42744;51.094;3.490;2022-09-29T19:15:35;10.30;99.90
56861;DHT22;42744;51.094;3.490;2022-09-29T19:18:03;10.20;99.90
56861;DHT22;42744;51.094;3.490;2022-09-29T19:20:30;10.20;99.90
56861;DHT22;42744;51.094;3.490;2022-09-29T19:22:57;10.10;99.90
56861;DHT22;42744;51.094;3.490;2022-09-29T19:25:29;10.10;99.90
56861;DHT22;42744;51.094;3.490;2022-09-29T19:27:57;10.00;99.90
56861;DHT22;42744;51.094;3.490;2022-09-29T19:30:25;10.00;99.90
56861;DHT22;42744;51.094;3.490;2022-09-29T19:32:52;10.00;99.90
56861;DHT22;42744;51.094;3.490;2022-09-29T19:35:22;9.90;99.90
56861;DHT22;42744;51.094;3.490;2022-09-29T19:37:48;9.90;99.90
56861;DHT22;42744;51.094;3.490;2022-09-29T19:40:27;9.90;99.90
56861;DHT22;42744;51.094;3.490;2022-09-29T19:42:53;9.80;99.90
56861;DHT22;42744;51.094;3.490;2022-09-29T19:45:19;9.80;99.90
56861;DHT22;42744;51.094;3.490;2022-09-29T19:47:46;9.70;99.90
56861;DHT22;42744;51.094;3.490;2022-09-29T19:50:15;9.60;99.90